createdAt,value
2023-03-18T00:01:29.759Z,100691.66
2023-03-18T00:03:58.340Z,100682.84
2023-03-18T00:06:27.238Z,100689.00
2023-03-18T00:08:55.863Z,100688.81
2023-03-18T00:11:27.076Z,100703.81
2023-03-18T00:13:56.407Z,100702.06
2023-03-18T00:16:24.624Z,100699.50
2023-03-18T00:18:54.721Z,100677.53
2023-03-18T00:21:23.562Z,100660.00
2023-03-18T00:23:57.041Z,100691.50
2023-03-18T00:26:26.126Z,100695.97
2023-03-18T00:28:58.026Z,100672.31
2023-03-18T00:31:27.912Z,100683.66
2023-03-18T00:33:57.949Z,100676.66
2023-03-18T00:36:26.795Z,100665.16
2023-03-18T00:38:58.093Z,100673.16
2023-03-18T00:41:28.240Z,100665.22
2023-03-18T00:43:57.049Z,100678.38
2023-03-18T00:46:27.127Z,100673.03
2023-03-18T00:49:00.431Z,100674.94
2023-03-18T00:51:30.462Z,100684.69
2023-03-18T00:54:01.968Z,100675.91
2023-03-18T00:56:33.883Z,100682.84
2023-03-18T00:59:02.400Z,100672.38
2023-03-18T01:01:31.406Z,100684.56
2023-03-18T01:04:02.089Z,100690.72
2023-03-18T01:06:34.035Z,100686.25
2023-03-18T01:09:03.112Z,100677.41
2023-03-18T01:11:33.469Z,100682.78
2023-03-18T01:14:02.281Z,100666.94
2023-03-18T01:16:31.306Z,100658.22
2023-03-18T01:19:01.484Z,100672.13
2023-03-18T01:21:29.530Z,100664.31
2023-03-18T01:23:57.957Z,100682.69
2023-03-18T01:26:26.809Z,100675.72
2023-03-18T01:28:54.965Z,100665.31
2023-03-18T01:31:24.340Z,100655.69
2023-03-18T01:33:53.054Z,100661.75
2023-03-18T01:36:23.302Z,100656.56
2023-03-18T01:38:51.542Z,100658.38
2023-03-18T01:41:20.495Z,100669.75
2023-03-18T01:43:48.631Z,100679.44
2023-03-18T01:46:35.695Z,100678.59
2023-03-18T01:49:08.143Z,100686.34
2023-03-18T01:51:38.919Z,100681.06
2023-03-18T01:54:09.163Z,100674.13
2023-03-18T01:56:40.380Z,100674.16
2023-03-18T01:59:10.612Z,100668.81
2023-03-18T02:01:45.164Z,100668.81
2023-03-18T02:06:43.267Z,100660.13
2023-03-18T02:09:13.084Z,100647.81
2023-03-18T02:11:44.997Z,100651.41
2023-03-18T02:14:16.262Z,100660.25
2023-03-18T02:16:48.841Z,100670.69
2023-03-18T02:19:30.304Z,100654.88
2023-03-18T02:22:19.173Z,100659.22
2023-03-18T02:24:54.535Z,100659.31
2023-03-18T02:27:26.681Z,100648.88
2023-03-18T02:29:58.284Z,100647.06
2023-03-18T02:32:29.781Z,100660.16
2023-03-18T02:35:01.441Z,100651.31
2023-03-18T02:37:29.658Z,100656.66
2023-03-18T02:40:12.665Z,100667.06
2023-03-18T02:42:42.316Z,100663.50
2023-03-18T02:45:20.676Z,100660.03
2023-03-18T02:47:50.295Z,100662.66
2023-03-18T02:50:20.590Z,100663.50
2023-03-18T02:52:50.997Z,100655.63
2023-03-18T02:55:19.249Z,100660.06
2023-03-18T02:57:49.473Z,100662.72
2023-03-18T03:00:18.565Z,100654.75
2023-03-18T03:02:46.763Z,100649.47
2023-03-18T03:05:15.502Z,100644.25
2023-03-18T03:07:43.954Z,100642.44
2023-03-18T03:10:13.276Z,100616.22
2023-03-18T03:12:41.792Z,100640.84
2023-03-18T03:15:12.762Z,100633.78
2023-03-18T03:17:41.760Z,100633.72
2023-03-18T03:20:11.317Z,100640.72
2023-03-18T03:22:39.803Z,100642.53
2023-03-18T03:25:09.865Z,100627.72
2023-03-18T03:27:39.012Z,100633.81
2023-03-18T03:30:09.809Z,100617.94
2023-03-18T03:32:40.049Z,100633.69
2023-03-18T03:35:09.491Z,100637.28
2023-03-18T03:37:37.778Z,100628.47
2023-03-18T03:40:08.601Z,100632.06
2023-03-18T03:42:37.128Z,100628.69
2023-03-18T03:45:08.001Z,100626.06
2023-03-18T03:47:38.292Z,100626.06
2023-03-18T03:50:07.231Z,100636.59
2023-03-18T03:52:35.612Z,100637.56
2023-03-18T03:55:04.257Z,100632.34
2023-03-18T03:57:32.645Z,100643.75
2023-03-18T04:00:01.964Z,100644.63
2023-03-18T04:02:30.317Z,100639.38
2023-03-18T04:05:00.402Z,100641.94
2023-03-18T04:07:29.304Z,100642.78
2023-03-18T04:09:57.378Z,100646.31
2023-03-18T04:12:25.759Z,100642.84
2023-03-18T04:14:54.159Z,100634.13
2023-03-18T04:17:25.676Z,100634.09
2023-03-18T04:19:53.806Z,100632.34
2023-03-18T04:22:24.170Z,100630.53
2023-03-18T04:24:52.937Z,100623.59
2023-03-18T04:27:22.684Z,100618.31
2023-03-18T04:29:51.234Z,100621.69
2023-03-18T04:32:19.370Z,100621.81
2023-03-18T04:34:47.666Z,100616.56
2023-03-18T04:37:20.075Z,100622.75
2023-03-18T04:39:50.060Z,100614.84
2023-03-18T04:42:18.813Z,100625.38
2023-03-18T04:44:47.137Z,100613.19
2023-03-18T04:47:15.507Z,100607.03
2023-03-18T04:49:44.026Z,100609.66
2023-03-18T04:52:13.179Z,100609.69
2023-03-18T04:54:43.114Z,100614.13
2023-03-18T04:57:13.242Z,100615.88
2023-03-18T04:59:42.319Z,100623.75
2023-03-18T05:02:10.950Z,100620.16
2023-03-18T05:04:39.447Z,100627.22
2023-03-18T05:07:07.779Z,100625.34
2023-03-18T05:09:36.403Z,100625.34
2023-03-18T05:12:04.698Z,100630.50
2023-03-18T05:14:34.683Z,100630.38
2023-03-18T05:17:04.522Z,100626.88
2023-03-18T05:19:33.619Z,100625.09
2023-03-18T05:22:01.844Z,100623.47
2023-03-18T05:24:35.197Z,100627.03
2023-03-18T05:27:03.418Z,100630.56
2023-03-18T05:29:33.428Z,100624.44
2023-03-18T05:32:01.636Z,100608.59
2023-03-18T05:34:29.929Z,100635.81
2023-03-18T05:37:00.877Z,100635.81
2023-03-18T05:39:29.370Z,100623.66
2023-03-18T05:41:58.281Z,100634.97
2023-03-18T05:44:27.305Z,100613.16
2023-03-18T05:46:57.902Z,100619.38
2023-03-18T05:49:27.416Z,100611.53
2023-03-18T05:51:56.526Z,100626.41
2023-03-18T05:54:26.003Z,100616.72
2023-03-18T05:56:56.320Z,100626.38
2023-03-18T05:59:27.707Z,100625.47
2023-03-18T06:01:57.915Z,100635.91
2023-03-18T06:04:27.254Z,100618.38
2023-03-18T06:06:55.684Z,100627.03
2023-03-18T06:09:24.080Z,100635.97
2023-03-18T06:11:52.233Z,100622.00
2023-03-18T06:14:20.685Z,100635.16
2023-03-18T06:16:49.575Z,100621.97
2023-03-18T06:19:19.566Z,100634.25
2023-03-18T06:21:47.685Z,100639.47
2023-03-18T06:24:16.297Z,100633.34
2023-03-18T06:26:44.848Z,100629.84
2023-03-18T06:29:13.180Z,100646.44
2023-03-18T06:31:41.473Z,100642.09
2023-03-18T06:34:09.541Z,100648.19
2023-03-18T06:36:39.513Z,100639.53
2023-03-18T06:39:08.364Z,100652.63
2023-03-18T06:41:36.413Z,100653.56
2023-03-18T06:44:05.258Z,100653.53
2023-03-18T06:46:33.913Z,100656.19
2023-03-18T06:49:02.399Z,100656.19
2023-03-18T06:51:30.463Z,100665.81
2023-03-18T06:54:00.503Z,100660.44
2023-03-18T06:56:28.728Z,100665.75
2023-03-18T06:58:58.284Z,100670.97
2023-03-18T07:01:27.123Z,100670.94
2023-03-18T07:03:55.729Z,100672.66
2023-03-18T07:06:24.423Z,100676.19
2023-03-18T07:08:53.150Z,100676.19
2023-03-18T07:11:23.280Z,100670.09
2023-03-18T07:13:51.724Z,100669.19
2023-03-18T07:16:20.594Z,100677.09
2023-03-18T07:18:48.865Z,100676.22
2023-03-18T07:21:17.902Z,100676.19
2023-03-18T07:23:46.500Z,100679.69
2023-03-18T07:26:14.734Z,100670.97
2023-03-18T07:28:44.285Z,100677.06
2023-03-18T07:31:13.097Z,100671.81
2023-03-18T07:33:41.550Z,100672.72
2023-03-18T07:36:10.794Z,100675.34
2023-03-18T07:38:40.207Z,100689.34
2023-03-18T07:41:08.468Z,100669.16
2023-03-18T07:43:37.560Z,100683.19
2023-03-18T07:46:07.505Z,100674.44
2023-03-18T07:48:38.405Z,100681.44
2023-03-18T07:51:07.058Z,100665.69
2023-03-18T07:53:38.601Z,100669.13
2023-03-18T07:56:08.052Z,100677.91
2023-03-18T07:58:36.405Z,100677.88
2023-03-18T08:01:04.682Z,100681.38
2023-03-18T08:03:34.956Z,100684.72
2023-03-18T08:06:03.533Z,100672.41
2023-03-18T08:08:32.205Z,100684.66
2023-03-18T08:11:02.534Z,100688.03
2023-03-18T08:13:30.627Z,100684.56
2023-03-18T08:15:59.107Z,100679.38
2023-03-18T08:18:27.354Z,100689.13
2023-03-18T08:20:57.855Z,100693.38
2023-03-18T08:23:26.413Z,100694.31
2023-03-18T08:25:54.929Z,100692.53
2023-03-18T08:28:23.896Z,100689.75
2023-03-18T08:30:57.226Z,100687.00
2023-03-18T08:33:26.835Z,100682.66
2023-03-18T08:35:58.097Z,100691.28
2023-03-18T08:38:29.220Z,100684.25
2023-03-18T08:41:02.191Z,100698.44
2023-03-18T08:43:30.924Z,100694.88
2023-03-18T08:45:59.265Z,100686.19
2023-03-18T08:48:30.816Z,100698.38
2023-03-18T08:51:01.727Z,100700.13
2023-03-18T08:53:30.001Z,100682.53
2023-03-18T08:58:51.960Z,100677.25
2023-03-18T09:01:22.148Z,100691.13
2023-03-18T09:03:51.016Z,100712.31
2023-03-18T09:06:24.046Z,100703.50
2023-03-18T09:08:52.357Z,100703.53
2023-03-18T09:11:20.611Z,100708.81
2023-03-18T09:13:49.589Z,100713.22
2023-03-18T09:16:18.576Z,100715.81
2023-03-18T09:18:58.339Z,100689.41
2023-03-18T09:21:32.086Z,100676.53
2023-03-18T09:24:10.678Z,100722.84
2023-03-18T09:26:39.481Z,100707.91
2023-03-18T09:29:07.708Z,100714.13
2023-03-18T09:31:39.214Z,100720.97
2023-03-18T09:34:07.298Z,100724.47
2023-03-18T09:36:36.846Z,100726.94
2023-03-18T09:39:09.881Z,100734.72
2023-03-18T09:41:48.398Z,100732.91
2023-03-18T09:44:24.427Z,100743.53
2023-03-18T09:47:18.785Z,100748.78
2023-03-18T09:50:14.107Z,100746.97
2023-03-18T09:52:54.158Z,100748.75
2023-03-18T09:55:30.655Z,100752.41
2023-03-18T09:58:03.261Z,100771.69
2023-03-18T10:00:35.272Z,100773.47
2023-03-18T10:03:10.144Z,100765.53
2023-03-18T10:05:52.252Z,100765.50
2023-03-18T10:08:36.260Z,100768.19
2023-03-18T10:11:22.463Z,100769.22
2023-03-18T10:14:06.965Z,100761.38
2023-03-18T10:16:48.812Z,100771.75
2023-03-18T10:19:20.011Z,100767.44
2023-03-18T10:21:54.819Z,100769.13
2023-03-18T10:24:34.096Z,100770.00
2023-03-18T10:27:10.713Z,100775.16
2023-03-18T10:29:43.861Z,100773.56
2023-03-18T10:32:23.373Z,100784.06
2023-03-18T10:35:02.460Z,100771.03
2023-03-18T10:37:43.986Z,100764.94
2023-03-18T10:40:17.829Z,100765.78
2023-03-18T10:42:46.991Z,100765.06
2023-03-18T10:45:24.431Z,100766.63
2023-03-18T10:48:00.967Z,100766.50
2023-03-18T10:50:35.159Z,100762.81
2023-03-18T10:53:13.654Z,100775.16
2023-03-18T10:55:52.022Z,100773.31
2023-03-18T10:58:20.949Z,100770.72
2023-03-18T11:00:50.178Z,100767.09
2023-03-18T11:03:27.976Z,100764.47
2023-03-18T11:05:59.075Z,100757.63
2023-03-18T11:08:34.744Z,100769.88
2023-03-18T11:11:27.085Z,100767.91
2023-03-18T11:13:57.175Z,100762.78
2023-03-18T11:16:30.904Z,100775.72
2023-03-18T11:18:59.912Z,100757.50
2023-03-18T11:21:31.642Z,100772.22
2023-03-18T11:24:21.104Z,100773.03
2023-03-18T11:26:56.949Z,100776.63
2023-03-18T11:29:29.650Z,100778.28
2023-03-18T11:31:59.331Z,100767.56
2023-03-18T11:34:29.385Z,100777.97
2023-03-18T11:37:04.813Z,100753.31
2023-03-18T11:39:37.667Z,100765.41
2023-03-18T11:42:20.352Z,100777.59
2023-03-18T11:44:57.595Z,100779.41
2023-03-18T11:47:30.454Z,100770.69
2023-03-18T11:49:58.887Z,100777.72
2023-03-18T11:52:37.121Z,100789.19
2023-03-18T11:55:26.552Z,100780.09
2023-03-18T11:58:38.738Z,100790.81
2023-03-18T12:01:14.894Z,100788.56
2023-03-18T12:04:24.653Z,100797.41
2023-03-18T12:07:09.041Z,100793.34
2023-03-18T12:09:43.200Z,100784.50
2023-03-18T12:12:30.623Z,100797.56
2023-03-18T12:15:06.873Z,100763.38
2023-03-18T12:17:47.528Z,100793.91
2023-03-18T12:20:50.192Z,100796.59
2023-03-18T12:23:33.704Z,100788.47
2023-03-18T12:26:06.772Z,100797.09
2023-03-18T12:28:48.610Z,100807.56
2023-03-18T12:31:55.484Z,100804.03
2023-03-18T12:34:44.645Z,100807.53
2023-03-18T12:37:32.435Z,100801.47
2023-03-18T12:40:13.784Z,100797.19
2023-03-18T12:42:57.110Z,100784.09
2023-03-18T12:45:28.710Z,100798.88
2023-03-18T12:48:02.564Z,100795.31
2023-03-18T12:50:38.276Z,100797.06
2023-03-18T12:53:16.869Z,100797.00
2023-03-18T12:55:47.248Z,100793.47
2023-03-18T12:58:19.312Z,100797.88
2023-03-18T13:00:56.146Z,100800.38
2023-03-18T13:03:33.966Z,100797.78
2023-03-18T13:06:10.214Z,100803.97
2023-03-18T13:08:54.259Z,100796.78
2023-03-18T13:11:36.165Z,100810.22
2023-03-18T13:14:08.564Z,100797.06
2023-03-18T13:16:39.126Z,100797.13
2023-03-18T13:19:07.713Z,100797.03
2023-03-18T13:22:04.074Z,100791.69
2023-03-18T13:25:06.776Z,100796.72
2023-03-18T13:27:55.424Z,100803.00
2023-03-18T13:30:33.479Z,100786.59
2023-03-18T13:33:20.990Z,100805.81
2023-03-18T13:36:07.317Z,100812.72
2023-03-18T13:39:10.247Z,100824.84
2023-03-18T13:41:54.747Z,100828.16
2023-03-18T13:44:41.330Z,100832.53
2023-03-18T13:51:08.267Z,100817.41
2023-03-18T13:53:51.044Z,100812.06
2023-03-18T13:57:02.843Z,100816.78
2023-03-18T14:00:24.131Z,100712.59
2023-03-18T14:03:17.406Z,100838.06
2023-03-18T14:05:49.068Z,100841.72
2023-03-18T14:08:49.438Z,100846.88
2023-03-18T14:11:52.381Z,100856.09
2023-03-18T14:15:09.464Z,100865.41
2023-03-18T14:17:49.333Z,100870.31
2023-03-18T14:20:29.704Z,100872.47
2023-03-18T14:23:37.176Z,100883.09
2023-03-18T14:26:09.807Z,100877.09
2023-03-18T14:28:46.634Z,100884.97
2023-03-18T14:31:27.745Z,100869.91
2023-03-18T14:34:04.600Z,100883.94
2023-03-18T14:37:19.434Z,100885.91
2023-03-18T14:39:51.659Z,100886.03
2023-03-18T14:42:33.104Z,100886.84
2023-03-18T14:45:06.775Z,100894.84
2023-03-18T14:47:44.644Z,100878.84
2023-03-18T14:50:23.364Z,100894.53
2023-03-18T14:52:56.024Z,100895.25
2023-03-18T14:55:28.295Z,100896.31
2023-03-18T14:57:56.885Z,100897.28
2023-03-18T15:00:26.160Z,100892.63
2023-03-18T15:03:01.822Z,100897.97
2023-03-18T15:05:36.371Z,100895.56
2023-03-18T15:08:10.902Z,100892.63
2023-03-18T15:10:40.293Z,100904.94
2023-03-18T15:13:13.910Z,100904.97
2023-03-18T15:15:43.137Z,100896.97
2023-03-18T15:18:26.740Z,100908.50
2023-03-18T15:21:01.336Z,100903.25
2023-03-18T15:23:33.779Z,100908.41
2023-03-18T15:26:04.134Z,100892.50
2023-03-18T15:28:33.853Z,100890.78
2023-03-18T15:31:05.850Z,100913.72
2023-03-18T15:33:38.344Z,100906.59
2023-03-18T15:36:15.140Z,100910.31
2023-03-18T15:38:48.194Z,100915.84
2023-03-18T15:41:18.079Z,100912.50
2023-03-18T15:43:47.668Z,100912.34
2023-03-18T15:46:19.462Z,100913.97
2023-03-18T15:48:54.945Z,100918.34
2023-03-18T15:51:31.423Z,100919.00
2023-03-18T15:54:06.958Z,100910.25
2023-03-18T15:56:36.835Z,100930.31
2023-03-18T15:59:14.496Z,100927.53
2023-03-18T16:01:44.210Z,100934.44
2023-03-18T16:04:16.447Z,100937.97
2023-03-18T16:06:46.850Z,100948.56
2023-03-18T16:09:17.326Z,100947.72
2023-03-18T16:11:49.179Z,100941.78
2023-03-18T16:14:19.786Z,100954.09
2023-03-18T16:16:48.801Z,100949.06
2023-03-18T16:19:19.565Z,100941.91
2023-03-18T16:21:49.347Z,100955.94
2023-03-18T16:24:17.553Z,100959.41
2023-03-18T16:26:47.068Z,100962.91
2023-03-18T16:29:17.328Z,100964.88
2023-03-18T16:31:46.349Z,100964.94
2023-03-18T16:34:21.850Z,100966.59
2023-03-18T16:36:53.607Z,100971.75
2023-03-18T16:39:27.278Z,100969.88
2023-03-18T16:41:58.548Z,100977.03
2023-03-18T16:44:27.931Z,100980.72
2023-03-18T16:46:58.609Z,100943.00
2023-03-18T16:49:31.112Z,100954.38
2023-03-18T16:52:02.002Z,100995.59
2023-03-18T16:54:33.081Z,100988.69
2023-03-18T16:57:03.558Z,100996.59
2023-03-18T16:59:35.532Z,100985.03
2023-03-18T17:02:04.369Z,101003.44
2023-03-18T17:04:34.482Z,101012.28
2023-03-18T17:07:06.105Z,101012.41
2023-03-18T17:09:34.546Z,101010.59
2023-03-18T17:12:05.781Z,101014.13
2023-03-18T17:14:37.995Z,101015.91
2023-03-18T17:17:08.940Z,101022.06
2023-03-18T17:19:37.097Z,101018.66
2023-03-18T17:22:20.940Z,101028.25
2023-03-18T17:24:49.906Z,101023.03
2023-03-18T17:27:22.188Z,101023.13
2023-03-18T17:29:50.742Z,101042.50
2023-03-18T17:32:19.794Z,101039.03
2023-03-18T17:34:50.378Z,101038.09
2023-03-18T17:37:20.940Z,101033.75
2023-03-18T17:39:49.736Z,101047.81
2023-03-18T17:42:29.793Z,101059.22
2023-03-18T17:45:03.460Z,101043.53
2023-03-18T17:47:31.896Z,101049.66
2023-03-18T17:50:00.719Z,101067.19
2023-03-18T17:52:30.658Z,101066.31
2023-03-18T17:54:59.096Z,101072.47
2023-03-18T17:57:27.362Z,101071.56
2023-03-18T17:59:55.723Z,101080.41
2023-03-18T18:02:25.580Z,101087.44
2023-03-18T18:04:54.058Z,101052.34
2023-03-18T18:07:23.972Z,101088.31
2023-03-18T18:09:58.236Z,101085.69
2023-03-18T18:12:26.884Z,101069.03
2023-03-18T18:14:55.588Z,101053.19
2023-03-18T18:17:24.368Z,101083.03
2023-03-18T18:19:54.740Z,101090.03
2023-03-18T18:22:26.766Z,101094.50
2023-03-18T18:24:58.007Z,101052.38
2023-03-18T18:27:26.796Z,101100.59
2023-03-18T18:29:55.103Z,101108.50
2023-03-18T18:32:24.932Z,101108.50
2023-03-18T18:34:54.953Z,101116.41
2023-03-18T18:37:26.804Z,101109.38
2023-03-18T18:39:59.227Z,101112.88
2023-03-18T18:42:27.870Z,101107.66
2023-03-18T18:44:56.622Z,101086.63
2023-03-18T18:47:27.395Z,101105.91
2023-03-18T18:50:01.236Z,101112.94
2023-03-18T18:52:30.849Z,101112.94
2023-03-18T18:55:00.633Z,101109.41
2023-03-18T18:57:31.192Z,101111.19
2023-03-18T18:59:59.312Z,101107.69
2023-03-18T19:02:31.796Z,101114.72
2023-03-18T19:05:01.113Z,101112.97
2023-03-18T19:07:30.378Z,101108.53
2023-03-18T19:10:00.682Z,101114.69
2023-03-18T19:12:29.161Z,101119.97
2023-03-18T19:14:57.332Z,101131.38
2023-03-18T19:17:26.506Z,101112.94
2023-03-18T19:19:56.961Z,101119.97
2023-03-18T19:22:26.626Z,101129.63
2023-03-18T19:24:55.588Z,101130.50
2023-03-18T19:27:28.242Z,101119.97
2023-03-18T19:29:58.644Z,101114.72
2023-03-18T19:32:27.942Z,101125.22
2023-03-18T19:34:56.754Z,101118.19
2023-03-18T19:37:29.240Z,101139.22
2023-03-18T19:39:58.616Z,101136.63
2023-03-18T19:42:28.675Z,101141.91
2023-03-18T19:44:57.384Z,101134.88
2023-03-18T19:47:32.342Z,101149.81
2023-03-18T19:50:01.391Z,101141.91
2023-03-18T19:52:30.688Z,101134.91
2023-03-18T19:54:59.326Z,101154.22
2023-03-18T19:57:32.853Z,101102.44
2023-03-18T20:00:05.130Z,101145.41
2023-03-18T20:02:35.110Z,101142.75
2023-03-18T20:05:06.645Z,101149.78
2023-03-18T20:07:34.903Z,101157.69
2023-03-18T20:10:03.452Z,101160.34
2023-03-18T20:12:36.410Z,101167.34
2023-03-18T20:15:05.766Z,101175.25
2023-03-18T20:17:39.295Z,101172.63
2023-03-18T20:20:10.121Z,101170.84
2023-03-18T20:22:42.569Z,101172.63
2023-03-18T20:25:19.391Z,101155.03
2023-03-18T20:27:50.812Z,101167.34
2023-03-18T20:30:30.423Z,101174.38
2023-03-18T20:33:00.350Z,101172.59
2023-03-18T20:35:30.966Z,101180.50
2023-03-18T20:38:02.238Z,101176.13
2023-03-18T20:40:32.230Z,101175.25
2023-03-18T20:43:02.481Z,101184.06
2023-03-18T20:45:31.035Z,101187.56
2023-03-18T20:47:59.428Z,101190.19
2023-03-18T20:50:30.143Z,101188.47
2023-03-18T20:52:59.140Z,101190.19
2023-03-18T20:55:31.357Z,101194.59
2023-03-18T20:58:02.428Z,101190.22
2023-03-18T21:00:33.216Z,101194.59
2023-03-18T21:03:03.760Z,101190.19
2023-03-18T21:05:32.096Z,101195.47
2023-03-18T21:08:00.448Z,101200.72
2023-03-18T21:10:29.227Z,101202.50
2023-03-18T21:12:57.803Z,101206.00
2023-03-18T21:15:28.976Z,101191.94
2023-03-18T21:17:57.200Z,101204.22
2023-03-18T21:20:31.067Z,101163.84
2023-03-18T21:22:59.437Z,101212.16
2023-03-18T21:25:29.233Z,101206.00
2023-03-18T21:27:57.890Z,101200.72
2023-03-18T21:30:27.893Z,101204.22
2023-03-18T21:32:56.619Z,101207.78
2023-03-18T21:35:26.846Z,101200.72
2023-03-18T21:37:55.533Z,101214.78
2023-03-18T21:40:26.579Z,101215.66
2023-03-18T21:42:54.995Z,101216.53
2023-03-18T21:45:24.909Z,101220.94
2023-03-18T21:47:54.412Z,101213.03
2023-03-18T21:50:28.244Z,101216.53
2023-03-18T21:52:59.272Z,101216.53
2023-03-18T21:55:27.408Z,101220.03
2023-03-18T21:57:56.243Z,101214.78
2023-03-18T22:00:24.800Z,101219.19
2023-03-18T22:02:54.903Z,101211.25
2023-03-18T22:05:25.598Z,101186.66
2023-03-18T22:07:54.057Z,101208.63
2023-03-18T22:10:24.384Z,101218.31
2023-03-18T22:12:52.868Z,101210.41
2023-03-18T22:15:35.977Z,101228.84
2023-03-18T22:18:07.417Z,101234.97
2023-03-18T22:20:36.668Z,101231.50
2023-03-18T22:23:20.152Z,101217.41
2023-03-18T22:25:49.889Z,101225.31
2023-03-18T22:28:18.782Z,101223.59
2023-03-18T22:30:52.189Z,101228.88
2023-03-18T22:33:25.934Z,101233.22
2023-03-18T22:35:54.781Z,101228.81
2023-03-18T22:38:24.657Z,101217.41
2023-03-18T22:40:55.832Z,101231.47
2023-03-18T22:43:30.509Z,101234.09
2023-03-18T22:45:59.367Z,101234.09
2023-03-18T22:48:29.822Z,101232.34
2023-03-18T22:51:01.418Z,101233.25
2023-03-18T22:53:31.902Z,101207.75
2023-03-18T22:56:02.769Z,101228.81
2023-03-18T22:58:31.020Z,101226.09
2023-03-18T23:00:59.582Z,101224.34
2023-03-18T23:03:31.868Z,101226.88
2023-03-18T23:06:01.994Z,101226.84
2023-03-18T23:08:31.304Z,101230.38
2023-03-18T23:11:02.987Z,101242.72
2023-03-18T23:13:34.538Z,101233.88
2023-03-18T23:16:04.464Z,101249.72
2023-03-18T23:18:34.357Z,101242.72
2023-03-18T23:21:02.803Z,101242.72
2023-03-18T23:23:31.895Z,101242.84
2023-03-18T23:26:00.111Z,101254.31
2023-03-18T23:28:28.851Z,101241.13
2023-03-18T23:30:57.279Z,101241.16
2023-03-18T23:33:25.595Z,101236.75
2023-03-18T23:35:55.529Z,101239.34
2023-03-18T23:38:23.903Z,101246.41
2023-03-18T23:40:52.414Z,101238.50
2023-03-18T23:43:22.332Z,101249.06
2023-03-18T23:45:51.257Z,101251.69
2023-03-18T23:48:19.414Z,101250.81
2023-03-18T23:50:47.782Z,101218.31
2023-03-18T23:53:17.809Z,101244.66
2023-03-18T23:55:46.367Z,101242.00
2023-03-18T23:58:14.733Z,101248.19
